Soldotna, AK

8:07 PM AKST on December 17, 2014 (GMT -0900)
W. Corral PWS | Change Station
CLOSE
Current Station
Personal Weather Station
Location: Soldotna, AK
Elevation: 110 ft
Nearby Weather Stations

Elev 110 ft 60.49 °N, 151.08 °W | Updated 6 seconds ago

Overcast
Overcast
31.6 °F
Feels Like 32 °F
N
1.6
Wind Variable Wind from North
Gusts 1.6 mph

Today
High -- | Low -- °F
--% Chance of Precip.
Yesterday
High -- | Low -- °F
Precip. -- in
10:08 AM 3:52 PM
Waning Crescent, 17% visible
Pressure 29.54 in
Visibility 10.0 miles
Clouds Overcast 300 ft
Windchill 32 °F
Dew Point 32 °F
Humidity 99%
Rainfall 0.00 in
Snow Depth Not available.
UV 0 out of 12
Pollen Not available.
Air Quality Not available.
Flu Activity Not available.
METAR PASX 180456Z AUTO 06005KT 10SM OVC003 M01/M02 A2954 RMK AO1

More Conditions Fewer Conditions

Pressure 29.54 in
Visibility 10.0 miles
Clouds Overcast 300 ft
Windchill 32 °F
Dew Point 32 °F
Humidity 99%
Rainfall 0.00 in
Snow Depth Not available.
UV 0 out of 12
Pollen Not available.
Air Quality Not available.
Flu Activity Not available.
METAR PASX 180456Z AUTO 06005KT 10SM OVC003 M01/M02 A2954 RMK AO1

More Conditions Fewer Conditions

10-Day Weather Forecast

Almanac

Astronomy

Dec. 17, 2014 Rise Set
Actual Time
Civil Twilight
Nautical Twilight
Astronomical Twilight
Moon
Length of Visible Light
Length of Day
Tomorrow will be .
, % of the Moon is Illuminated

Today's Extremes

State Highs State Lows

Community

WunderPhotos

Upload Photos

1,778,882 photos uploaded!

WunderBlogs® & News

Nearby

Air Quality

  Air Quality AQ Index Pollutant
Not available.

Snow Depth

Station Depth Elevation

Earthquake Activity

City Distance Mag. Time & Date
Minimum magnitude displayed is 2.5.

Coastal Water Temperatures

Place Temperature

Nearby Weather Stations